Modesto City - County Airport

Airport
ICAO code: 
KMOD
IATA Code: 
MOD
Summary
ICAO Region: 
NAM
Territory: 
Location: 
Modesto, California
Serving: 
Modesto
Elevation: 
97 ft
Coordinates: 
Aerial View: 
37° 37' 32.803" N, 120° 57' 11.339" W
Airport LOS: 
Parallel Runway Operation
Metar
Observation
KMOD 270253Z 00000KT 4SM HZ CLR 12/08 A3014 RMK AO2 SLP207 T01170078 50004
Station
Modesto, Modesto City-County-Sham Field
Date/Time
2021-11-27 02:53:00
Wind direction
Wind speed
00 kts
Lowest cloud amount
n/a
Temperature
11.7°C
Dew point
7.8°C
Humidity
76%
Weather condition
haze

Modesto City-County Airport, also known as Harry Sham Field, is located 3 km southeast of the central business district of Modesto, a city in Stanislaus County, California.

Climatology

Dry-summer subtropical ”Mediterranean" climate (Köppen climate classification Csb) - characterized by warm, dry summers and mild winters. During the summer, rising hot air in California's interior valleys creates a low pressure area that draws winds from the North Pacific High.

Runways

Designator Length Width Surface Rops
10R/28L 1054 30 ASP Yes/Yes
10L/28R 1802 46 ASP Yes/Yes
Airport map: 
Aerial View: 

SKYbrary Partners:

Safety knowledge contributed by: